createdAt,value
2023-03-23T15:59:51.574Z,99695.27
2023-03-23T16:03:22.636Z,99694.65
2023-03-23T16:06:52.507Z,99690.73
2023-03-23T16:10:23.584Z,99687.67
2023-03-23T16:13:51.961Z,99685.53
2023-03-23T16:17:23.204Z,99680.70
2023-03-23T16:20:53.239Z,99690.02
2023-03-23T16:24:20.668Z,99688.79
2023-03-23T16:27:52.586Z,99692.76
2023-03-23T16:31:20.561Z,99700.72
2023-03-23T16:34:48.223Z,99701.84
2023-03-23T16:38:18.158Z,99705.63
2023-03-23T16:41:46.383Z,99708.51
2023-03-23T16:45:14.974Z,99711.76
2023-03-23T16:48:42.273Z,99708.89
2023-03-23T16:52:12.948Z,99722.00
2023-03-23T16:55:44.972Z,99717.02
2023-03-23T16:59:15.505Z,99718.14
2023-03-23T17:02:47.203Z,99722.11
2023-03-23T17:06:15.372Z,99731.02
2023-03-23T17:09:47.047Z,99725.89
2023-03-23T17:13:17.485Z,99722.01
2023-03-23T17:16:45.738Z,99728.45
2023-03-23T17:20:15.076Z,99734.70
2023-03-23T17:23:42.246Z,99747.96
2023-03-23T17:27:09.955Z,99756.29
2023-03-23T17:30:41.004Z,99757.40
2023-03-23T17:34:10.330Z,99753.39
2023-03-23T17:37:45.288Z,99742.91
2023-03-23T17:41:13.892Z,99743.63
2023-03-23T17:44:42.584Z,99742.23
2023-03-23T17:48:11.114Z,99739.77
2023-03-23T17:51:38.933Z,99756.25
2023-03-23T17:55:08.914Z,99770.09
2023-03-23T17:58:37.006Z,99778.33
2023-03-23T18:02:04.504Z,99777.80
2023-03-23T18:05:32.389Z,99774.66
2023-03-23T18:08:59.592Z,99773.25
2023-03-23T18:12:27.364Z,99771.70
2023-03-23T18:15:56.884Z,99780.82
2023-03-23T18:19:24.420Z,99784.51
2023-03-23T18:22:52.393Z,99785.75
2023-03-23T18:26:21.959Z,99787.15
2023-03-23T18:29:50.831Z,99791.71
2023-03-23T18:33:20.897Z,99785.07
2023-03-23T18:36:49.188Z,99787.38
2023-03-23T18:40:21.768Z,99802.80
2023-03-23T18:43:49.953Z,99795.98
2023-03-23T18:47:18.489Z,99795.83
2023-03-23T18:50:50.184Z,99805.64
2023-03-23T18:54:19.236Z,99785.71
2023-03-23T18:57:49.539Z,99779.42
2023-03-23T19:01:18.426Z,99776.47
2023-03-23T19:04:46.704Z,99766.85
2023-03-23T19:08:14.197Z,99760.40
2023-03-23T19:11:41.753Z,99773.70
2023-03-23T19:15:10.906Z,99768.98
2023-03-23T19:18:38.600Z,99774.02
2023-03-23T19:22:08.757Z,99769.83
2023-03-23T19:25:36.839Z,99766.66
2023-03-23T19:29:25.415Z,99770.84
2023-03-23T19:32:52.894Z,99773.98
2023-03-23T19:36:21.687Z,99784.63
2023-03-23T19:39:49.127Z,99791.79
2023-03-23T19:43:17.101Z,99801.20
2023-03-23T19:46:44.709Z,99798.91
2023-03-23T19:50:12.650Z,99803.24
2023-03-23T19:53:40.177Z,99813.54
2023-03-23T19:57:08.298Z,99821.00
2023-03-23T20:00:37.698Z,99819.91
2023-03-23T20:04:06.988Z,99820.77
2023-03-23T20:07:40.785Z,99819.85
2023-03-23T20:11:12.636Z,99822.61
2023-03-23T20:14:44.972Z,99823.29
2023-03-23T20:18:14.808Z,99818.89
2023-03-23T20:21:41.963Z,99823.25
2023-03-23T20:25:10.198Z,99818.84
2023-03-23T20:28:37.477Z,99821.80
2023-03-23T20:32:04.745Z,99825.96
2023-03-23T20:35:32.010Z,99827.86
2023-03-23T20:38:59.448Z,99836.39
2023-03-23T20:42:26.606Z,99844.36
2023-03-23T20:45:55.249Z,99850.28
2023-03-23T20:49:23.297Z,99852.50
2023-03-23T20:52:50.320Z,99852.94
2023-03-23T20:56:17.387Z,99854.80
2023-03-23T20:59:44.715Z,99850.57
2023-03-23T21:03:12.974Z,99847.89
2023-03-23T21:06:40.418Z,99849.23
2023-03-23T21:10:08.054Z,99849.70
2023-03-23T21:13:36.581Z,99852.96
2023-03-23T21:17:04.239Z,99853.05
2023-03-23T21:20:32.384Z,99864.27
2023-03-23T21:23:59.688Z,99859.10
2023-03-23T21:27:27.203Z,99859.84
2023-03-23T21:30:54.837Z,99858.16
2023-03-23T21:34:21.986Z,99862.75
2023-03-23T21:37:50.184Z,99861.48
2023-03-23T21:41:17.365Z,99859.71
2023-03-23T21:44:45.987Z,99857.40
2023-03-23T21:48:15.525Z,99849.92
2023-03-23T21:51:44.139Z,99846.26
2023-03-23T21:55:12.538Z,99846.80
2023-03-23T21:58:40.128Z,99841.08
2023-03-23T22:02:07.659Z,99843.19
2023-03-23T22:05:35.112Z,99846.84
2023-03-23T22:09:02.249Z,99853.61
2023-03-23T22:12:31.976Z,99855.16
2023-03-23T22:16:00.871Z,99857.55
2023-03-23T22:19:29.301Z,99853.84
2023-03-23T22:22:56.930Z,99854.61
2023-03-23T22:26:25.031Z,99855.91
2023-03-23T22:29:52.076Z,99858.59
2023-03-23T22:33:20.079Z,99862.15
2023-03-23T22:36:47.695Z,99863.45
2023-03-23T22:40:15.596Z,99858.31
2023-03-23T22:43:42.815Z,99849.84
2023-03-23T22:47:10.140Z,99846.63
2023-03-23T22:50:37.505Z,99842.72
2023-03-23T22:54:04.655Z,99843.55
2023-03-23T22:57:32.030Z,99840.58
2023-03-23T23:01:01.467Z,99841.63
2023-03-23T23:04:28.721Z,99843.02
2023-03-23T23:07:56.047Z,99844.20
2023-03-23T23:11:25.375Z,99849.02
2023-03-23T23:14:52.486Z,99847.96
2023-03-23T23:18:20.639Z,99845.86
2023-03-23T23:21:47.696Z,99838.70
2023-03-23T23:25:14.811Z,99833.68
2023-03-23T23:28:42.402Z,99828.86
2023-03-23T23:32:09.534Z,99827.89
2023-03-23T23:35:37.132Z,99825.09
2023-03-23T23:39:06.096Z,99823.12
2023-03-23T23:42:33.135Z,99820.80
2023-03-23T23:46:00.209Z,99822.33
2023-03-23T23:49:28.865Z,99821.06
2023-03-23T23:52:58.768Z,99824.48
2023-03-23T23:56:24.177Z,99824.73
2023-03-23T23:59:51.566Z,99831.08
